Time;durP1;ratioP1;P1;durP2;ratioP2;P2;SDS_P1;SDS_P2;PMS_P1;PMS_P2;Temp;Humidity;BMP_temperature;BMP_pressure;BME280_temperature;BME280_humidity;BME280_pressure;Samples;Min_cycle;Max_cycle;Signal;HPM_P1;HPM_P2
2022/12/06 00:01:05;;;;;;;15.63;10.70;;;;;;;2.05;100.00;101859.59;4948020;29;20193;-79
2022/12/06 00:03:30;;;;;;;18.37;11.00;;;;;;;2.05;100.00;101851.13;4952064;28;20227;-80
2022/12/06 00:06:23;;;;;;;15.83;10.43;;;;;;;1.99;100.00;101853.25;4964656;28;20220;-79
2022/12/06 00:08:49;;;;;;;16.10;10.70;;;;;;;1.98;100.00;101852.38;4960106;28;20790;-79
2022/12/06 00:11:18;;;;;;;14.87;10.33;;;;;;;1.98;100.00;101851.50;4951620;28;20280;-79
2022/12/06 00:13:44;;;;;;;16.40;11.87;;;;;;;1.99;100.00;101854.16;4954255;28;20225;-79
2022/12/06 00:16:15;;;;;;;17.07;12.00;;;;;;;2.00;100.00;101843.25;4967334;28;20216;-79
2022/12/06 00:18:43;;;;;;;18.77;11.43;;;;;;;2.00;100.00;101850.84;4962273;28;20226;-79
2022/12/06 00:21:14;;;;;;;18.70;11.83;;;;;;;2.00;100.00;101842.38;4961518;28;20228;-79
2022/12/06 00:23:45;;;;;;;17.13;11.23;;;;;;;2.00;100.00;101842.38;4959568;28;20245;-80
2022/12/06 00:26:12;;;;;;;16.00;11.17;;;;;;;2.02;100.00;101840.84;4973683;28;20225;-78
2022/12/06 00:28:38;;;;;;;18.07;10.67;;;;;;;2.02;100.00;101839.19;4953142;28;20208;-77
2022/12/06 00:31:07;;;;;;;14.93;10.83;;;;;;;2.05;100.00;101838.50;4944601;28;20680;-77
2022/12/06 00:33:33;;;;;;;16.93;11.10;;;;;;;2.04;100.00;101834.25;4950821;29;20197;-78
2022/12/06 00:36:09;;;;;;;14.70;10.67;;;;;;;2.06;100.00;101837.78;4950495;28;20193;-76
2022/12/06 00:38:35;;;;;;;15.07;10.13;;;;;;;2.10;100.00;101834.66;4961526;28;20713;-78
2022/12/06 00:41:09;;;;;;;16.30;10.97;;;;;;;2.12;100.00;101835.66;4970251;28;20189;-78
2022/12/06 00:43:36;;;;;;;16.20;10.23;;;;;;;2.08;100.00;101837.09;4970685;28;20207;-78
2022/12/06 00:46:03;;;;;;;17.33;10.43;;;;;;;2.10;100.00;101839.69;4949465;28;20658;-77
2022/12/06 00:48:29;;;;;;;15.13;10.47;;;;;;;2.11;100.00;101842.34;4949506;28;20268;-77
2022/12/06 00:50:54;;;;;;;14.90;10.13;;;;;;;2.12;100.00;101839.03;4963147;28;20659;-76
2022/12/06 00:53:20;;;;;;;14.17;10.20;;;;;;;2.14;100.00;101841.66;4953347;28;20197;-77
2022/12/06 00:55:46;;;;;;;16.83;10.67;;;;;;;2.15;100.00;101840.94;4955748;28;20232;-78
2022/12/06 00:58:13;;;;;;;15.77;10.53;;;;;;;2.15;100.00;101839.25;4968242;28;20293;-78
2022/12/06 01:00:38;;;;;;;15.17;10.73;;;;;;;2.17;100.00;101836.84;4971164;28;20200;-78
2022/12/06 01:03:04;;;;;;;16.20;11.10;;;;;;;2.19;100.00;101833.66;4971750;28;20196;-78
2022/12/06 01:05:30;;;;;;;15.07;11.00;;;;;;;2.21;100.00;101837.13;4955637;28;20609;-77
2022/12/06 01:07:56;;;;;;;15.43;10.33;;;;;;;2.20;100.00;101837.06;4969527;28;20224;-76
2022/12/06 01:10:21;;;;;;;14.87;10.47;;;;;;;2.17;100.00;101836.84;4951100;28;20206;-77
2022/12/06 01:12:47;;;;;;;16.13;10.83;;;;;;;2.17;100.00;101834.31;4967385;28;20185;-78
2022/12/06 01:15:12;;;;;;;15.97;11.00;;;;;;;2.15;100.00;101835.88;4965570;28;20213;-77
2022/12/06 01:17:38;;;;;;;14.10;9.73;;;;;;;2.17;100.00;101831.78;4948751;28;20219;-78
2022/12/06 01:20:05;;;;;;;19.20;11.23;;;;;;;2.13;100.00;101835.75;4951881;28;20328;-79
2022/12/06 01:22:31;;;;;;;15.07;10.50;;;;;;;2.12;100.00;101828.06;4968384;28;20193;-78
2022/12/06 01:24:56;;;;;;;17.33;11.70;;;;;;;2.12;100.00;101831.47;4953258;28;20196;-79
2022/12/06 01:27:22;;;;;;;19.07;12.03;;;;;;;2.12;100.00;101831.47;4950157;28;20193;-74
2022/12/06 01:29:47;;;;;;;15.27;11.03;;;;;;;2.13;100.00;101825.66;4948639;28;20267;-78
2022/12/06 01:32:13;;;;;;;16.57;10.40;;;;;;;2.16;100.00;101825.00;4952054;28;20738;-78
2022/12/06 01:34:38;;;;;;;16.93;10.57;;;;;;;2.19;100.00;101820.13;4954560;28;20221;-80
2022/12/06 01:37:04;;;;;;;16.77;10.30;;;;;;;2.20;100.00;101821.91;4966812;28;20203;-79
2022/12/06 01:39:30;;;;;;;16.40;10.90;;;;;;;2.21;100.00;101818.59;4957777;28;20212;-79
2022/12/06 01:41:56;;;;;;;15.03;10.17;;;;;;;2.15;100.00;101821.56;4965973;28;20196;-77
2022/12/06 01:44:40;;;;;;;15.30;11.17;;;;;;;2.16;100.00;101822.47;4949854;28;20229;-79
2022/12/06 01:47:22;;;;;;;14.73;10.20;;;;;;;2.20;100.00;101817.72;4965731;28;20207;-79
2022/12/06 01:49:56;;;;;;;16.60;10.57;;;;;;;2.21;100.00;101821.13;4944827;29;20236;-78
2022/12/06 01:52:37;;;;;;;18.00;10.70;;;;;;;2.19;100.00;101815.97;4950353;28;20188;-77
2022/12/06 01:55:06;;;;;;;19.40;11.33;;;;;;;2.18;100.00;101819.28;4949685;29;20655;-77
2022/12/06 01:57:32;;;;;;;17.67;10.23;;;;;;;2.19;100.00;101823.53;4949161;28;20203;-79
2022/12/06 01:59:57;;;;;;;15.70;10.97;;;;;;;2.19;100.00;101813.44;4933806;29;20189;-79
2022/12/06 02:02:23;;;;;;;15.73;10.70;;;;;;;2.17;100.00;101809.06;4950588;28;20196;-78
2022/12/06 02:04:50;;;;;;;17.60;11.17;;;;;;;2.19;100.00;101815.06;4954164;28;20193;-78
2022/12/06 02:07:16;;;;;;;18.10;10.97;;;;;;;2.16;100.00;101807.31;4963618;28;20669;-78
2022/12/06 02:09:42;;;;;;;17.53;11.20;;;;;;;2.16;100.00;101813.22;4956629;28;20213;-77
2022/12/06 02:12:15;;;;;;;16.90;11.47;;;;;;;2.13;100.00;101807.97;4966468;28;20198;-79
2022/12/06 02:14:45;;;;;;;16.47;11.07;;;;;;;2.13;100.00;101804.56;4952344;28;20341;-78
2022/12/06 02:17:39;;;;;;;17.33;10.80;;;;;;;2.12;100.00;101802.81;4963604;28;20205;-78
2022/12/06 02:20:19;;;;;;;16.47;10.70;;;;;;;2.10;100.00;101797.66;4953043;28;20674;-78
2022/12/06 02:23:03;;;;;;;19.00;11.57;;;;;;;2.14;100.00;101799.63;4968106;28;20220;-79
2022/12/06 02:25:35;;;;;;;17.37;11.53;;;;;;;2.14;100.00;101789.53;4959203;23;20185;-74
2022/12/06 02:28:48;;;;;;;15.53;10.47;;;;;;;2.19;100.00;101789.81;4961291;28;20216;-74
2022/12/06 02:31:15;;;;;;;19.70;11.50;;;;;;;2.21;100.00;101791.66;4956492;28;20285;-76
2022/12/06 02:34:24;;;;;;;19.20;11.43;;;;;;;2.18;100.00;101781.38;4955757;28;20204;-73
2022/12/06 02:36:59;;;;;;;16.70;11.03;;;;;;;2.19;100.00;101774.66;4952344;28;20204;-74
2022/12/06 02:39:46;;;;;;;17.83;11.43;;;;;;;2.23;100.00;101772.47;4967825;28;20250;-74
2022/12/06 02:42:16;;;;;;;17.80;10.57;;;;;;;2.23;100.00;101776.63;4965909;28;20291;-75
2022/12/06 02:44:50;;;;;;;18.73;11.63;;;;;;;2.24;100.00;101771.69;4956901;28;20194;-74
2022/12/06 02:47:20;;;;;;;17.63;11.57;;;;;;;2.25;100.00;101773.44;4976754;28;20193;-73
2022/12/06 02:49:49;;;;;;;17.47;10.73;;;;;;;2.28;100.00;101772.75;4967707;28;20203;-73
2022/12/06 02:52:17;;;;;;;18.07;11.63;;;;;;;2.31;100.00;101770.44;4970028;28;20270;-75
2022/12/06 02:54:46;;;;;;;17.27;10.00;;;;;;;2.30;100.00;101768.69;4970672;28;20197;-73
2022/12/06 02:57:12;;;;;;;18.63;11.73;;;;;;;2.30;100.00;101769.56;4965273;28;20200;-73
2022/12/06 02:59:38;;;;;;;16.37;11.20;;;;;;;2.29;100.00;101764.44;4961954;28;20725;-76
2022/12/06 03:02:08;;;;;;;19.57;11.23;;;;;;;2.30;100.00;101764.50;4961946;28;20203;-74
2022/12/06 03:04:44;;;;;;;20.30;11.80;;;;;;;2.33;100.00;101762.19;4967670;28;20201;-74
2022/12/06 03:07:24;;;;;;;22.33;11.50;;;;;;;2.34;100.00;101765.59;4968470;28;20196;-74
2022/12/06 03:10:21;;;;;;;21.27;11.90;;;;;;;2.35;100.00;101769.88;4982747;28;20707;-73
2022/12/06 03:13:23;;;;;;;21.70;12.13;;;;;;;2.39;100.00;101771.84;4973418;28;20259;-76
2022/12/06 03:15:59;;;;;;;20.80;11.70;;;;;;;2.40;100.00;101761.84;4973275;28;20208;-78
2022/12/06 03:18:37;;;;;;;21.40;11.90;;;;;;;2.43;100.00;101764.53;4969227;28;20279;-74
2022/12/06 03:21:31;;;;;;;19.63;11.33;;;;;;;2.41;100.00;101766.09;4971423;28;20239;-73
2022/12/06 03:23:57;;;;;;;20.80;10.97;;;;;;;2.39;100.00;101762.59;4944200;28;20717;-71
2022/12/06 03:26:28;;;;;;;20.20;11.67;;;;;;;2.40;100.00;101756.78;4968545;28;20188;-72
2022/12/06 03:28:56;;;;;;;23.67;11.40;;;;;;;2.41;100.00;101763.59;4969611;28;20223;-72
2022/12/06 03:31:24;;;;;;;22.30;13.10;;;;;;;2.42;100.00;101757.75;4972742;28;20220;-73
2022/12/06 03:33:57;;;;;;;23.50;12.60;;;;;;;2.42;100.00;101759.38;4972890;28;20215;-73
2022/12/06 03:36:25;;;;;;;19.80;12.20;;;;;;;2.45;100.00;101757.97;4969724;28;20196;-72
2022/12/06 03:39:00;;;;;;;28.63;12.57;;;;;;;2.45;100.00;101759.59;4973917;28;20196;-74
2022/12/06 03:41:35;;;;;;;24.03;12.43;;;;;;;2.43;100.00;101761.16;4970945;28;20295;-74
2022/12/06 03:44:01;;;;;;;22.97;12.63;;;;;;;2.43;100.00;101759.50;4971618;28;20729;-75
2022/12/06 03:46:32;;;;;;;24.20;12.93;;;;;;;2.46;100.00;101759.69;4975811;28;20196;-73
2022/12/06 03:49:02;;;;;;;21.60;11.90;;;;;;;2.47;100.00;101751.34;4966408;28;20727;-73
2022/12/06 03:51:32;;;;;;;22.53;12.20;;;;;;;2.46;100.00;101749.59;4965765;28;20209;-74
2022/12/06 03:53:59;;;;;;;25.10;12.70;;;;;;;2.46;100.00;101752.13;4963647;28;20204;-73
2022/12/06 03:56:26;;;;;;;26.53;13.07;;;;;;;2.46;100.00;101754.66;4966802;28;20193;-74
2022/12/06 03:58:51;;;;;;;24.93;13.80;;;;;;;2.47;100.00;101750.44;4968459;28;20212;-74
2022/12/06 04:01:17;;;;;;;24.57;14.27;;;;;;;2.47;100.00;101745.41;4976781;28;20224;-74
2022/12/06 04:03:42;;;;;;;24.03;12.83;;;;;;;2.50;100.00;101743.97;4968951;28;20203;-72
2022/12/06 04:06:09;;;;;;;24.90;13.23;;;;;;;2.53;100.00;101744.16;4971584;28;20196;-72
2022/12/06 04:08:34;;;;;;;24.50;12.80;;;;;;;2.54;100.00;101745.03;4971165;28;20189;-74
2022/12/06 04:11:00;;;;;;;24.80;13.57;;;;;;;2.53;100.00;101733.19;4972846;28;20236;-74
2022/12/06 04:13:26;;;;;;;26.37;13.83;;;;;;;2.51;100.00;101744.81;4968161;28;20426;-75
2022/12/06 04:15:55;;;;;;;21.47;13.37;;;;;;;2.50;100.00;101733.88;4964190;28;20275;-76
2022/12/06 04:18:21;;;;;;;24.17;13.57;;;;;;;2.51;100.00;101742.31;4967025;28;20661;-73
2022/12/06 04:23:40;;;;;;;26.23;14.10;;;;;;;2.50;100.00;101728.81;4968171;28;20271;-72
2022/12/06 04:26:08;;;;;;;24.70;13.53;;;;;;;2.53;100.00;101718.03;4950503;28;20219;-74
2022/12/06 04:39:31;;;;;;;29.17;14.70;;;;;;;2.56;100.00;101703.94;4961365;28;20275;-73
2022/12/06 04:44:41;;;;;;;30.67;14.60;;;;;;;2.54;100.00;101702.97;4963841;28;20267;-74
2022/12/06 04:47:07;;;;;;;27.60;13.90;;;;;;;2.56;100.00;101708.09;4963437;28;20288;-77
2022/12/06 04:49:33;;;;;;;29.40;13.70;;;;;;;2.58;100.00;101704.03;4960233;28;20188;-76
2022/12/06 04:51:59;;;;;;;34.43;14.87;;;;;;;2.59;100.00;101711.72;4963595;28;20557;-74
2022/12/06 04:54:25;;;;;;;28.20;14.07;;;;;;;2.57;100.00;101702.28;4964237;28;20209;-76
2022/12/06 04:56:51;;;;;;;29.47;14.93;;;;;;;2.58;100.00;101704.88;4966929;28;20235;-75
2022/12/06 04:59:17;;;;;;;26.77;13.97;;;;;;;2.59;100.00;101704.13;4964206;28;20272;-76
2022/12/06 05:01:43;;;;;;;31.47;14.53;;;;;;;2.59;100.00;101699.09;4963940;28;20283;-73
2022/12/06 05:04:09;;;;;;;30.30;14.03;;;;;;;2.60;100.00;101698.28;4960082;28;20181;-73
2022/12/06 05:06:34;;;;;;;30.10;14.60;;;;;;;2.64;100.00;101706.94;4964759;28;20753;-73
2022/12/06 05:09:00;;;;;;;31.73;14.37;;;;;;;2.63;100.00;101697.63;4974499;28;20192;-75
2022/12/06 05:11:25;;;;;;;25.97;13.50;;;;;;;2.64;100.00;101692.66;4963731;28;20217;-74
2022/12/06 05:13:51;;;;;;;24.90;14.03;;;;;;;2.66;100.00;101698.69;4967879;28;20251;-74
2022/12/06 05:16:16;;;;;;;27.10;14.73;;;;;;;2.66;100.00;101691.09;4965441;28;20216;-74
2022/12/06 05:18:42;;;;;;;21.73;13.30;;;;;;;2.68;100.00;101696.25;4967236;28;20181;-73
2022/12/06 05:21:12;;;;;;;24.60;13.57;;;;;;;2.70;100.00;101699.75;4964028;28;20219;-72
2022/12/06 05:23:37;;;;;;;27.23;14.77;;;;;;;2.72;100.00;101696.53;4961405;28;20692;-73
2022/12/06 05:26:06;;;;;;;26.27;14.43;;;;;;;2.72;100.00;101699.06;4963598;28;20196;-74
2022/12/06 05:28:32;;;;;;;23.97;13.80;;;;;;;2.74;100.00;101702.59;4964148;28;20243;-74
2022/12/06 05:30:58;;;;;;;28.47;14.63;;;;;;;2.75;100.00;101696.75;4972336;28;20212;-74
2022/12/06 05:33:24;;;;;;;28.87;13.83;;;;;;;2.76;100.00;101697.63;4971927;28;20204;-74
2022/12/06 05:35:50;;;;;;;28.83;14.77;;;;;;;2.75;100.00;101695.88;4974440;28;20240;-74
2022/12/06 05:38:15;;;;;;;31.33;14.43;;;;;;;2.75;100.00;101698.41;4973076;28;20215;-74
2022/12/06 05:40:42;;;;;;;27.23;14.43;;;;;;;2.77;100.00;101701.91;4961065;28;20224;-74
2022/12/06 05:43:08;;;;;;;25.60;13.20;;;;;;;2.78;100.00;101696.94;4953198;28;20189;-74
2022/12/06 05:45:33;;;;;;;29.87;14.00;;;;;;;2.78;100.00;101701.13;4962356;28;20185;-72
2022/12/06 05:47:58;;;;;;;28.73;14.63;;;;;;;2.79;100.00;101693.63;4955290;28;21348;-74
2022/12/06 05:50:24;;;;;;;28.17;13.97;;;;;;;2.82;100.00;101703.94;4960096;28;20205;-76
2022/12/06 05:52:53;;;;;;;30.63;14.73;;;;;;;2.83;100.00;101698.09;4962764;28;20218;-73
2022/12/06 05:55:19;;;;;;;29.17;14.10;;;;;;;2.85;100.00;101696.53;4970471;28;20200;-75
2022/12/06 05:57:44;;;;;;;26.30;14.23;;;;;;;2.85;100.00;101694.00;4964267;28;20272;-73
2022/12/06 06:00:10;;;;;;;25.70;13.10;;;;;;;2.87;100.00;101697.53;4961497;28;20367;-74
2022/12/06 06:02:36;;;;;;;23.30;12.87;;;;;;;2.91;100.00;101693.53;4967945;28;20189;-73
2022/12/06 06:05:02;;;;;;;26.20;13.03;;;;;;;2.96;100.00;101703.16;4970685;28;20196;-74
2022/12/06 06:07:28;;;;;;;21.33;11.93;;;;;;;3.00;100.00;101695.00;4967870;28;20195;-74
2022/12/06 06:09:54;;;;;;;22.07;11.57;;;;;;;3.04;100.00;101693.53;4970672;28;20208;-74
2022/12/06 06:12:19;;;;;;;19.00;10.83;;;;;;;3.08;100.00;101701.38;4967207;28;20191;-73
2022/12/06 06:14:45;;;;;;;20.90;11.53;;;;;;;3.10;100.00;101694.78;4967042;28;20266;-73
2022/12/06 06:17:10;;;;;;;21.43;11.10;;;;;;;3.17;100.00;101691.00;4979730;28;20192;-73
2022/12/06 06:19:35;;;;;;;17.90;10.63;;;;;;;3.18;100.00;101693.59;4961169;28;20564;-75
2022/12/06 06:22:01;;;;;;;18.17;10.20;;;;;;;3.20;100.00;101699.63;4963293;28;20200;-76
2022/12/06 06:24:26;;;;;;;19.20;9.90;;;;;;;3.23;100.00;101696.41;4963859;28;20189;-73
2022/12/06 06:26:52;;;;;;;14.90;9.37;;;;;;;3.23;100.00;101694.78;4965624;28;20288;-75
2022/12/06 06:29:17;;;;;;;16.87;9.33;;;;;;;3.27;100.00;101691.63;4963602;28;20196;-72
2022/12/06 06:31:42;;;;;;;16.57;9.30;;;;;;;3.33;100.00;101688.59;4974257;28;20716;-75
2022/12/06 06:34:08;;;;;;;16.70;8.83;;;;;;;3.34;100.00;101690.34;4970945;28;20244;-75
2022/12/06 06:36:33;;;;;;;16.77;8.83;;;;;;;3.36;100.00;101691.34;4969643;28;20231;-73
2022/12/06 06:38:59;;;;;;;13.93;8.43;;;;;;;3.38;100.00;101688.13;4966108;28;20284;-73
2022/12/06 06:41:24;;;;;;;13.67;7.50;;;;;;;3.47;100.00;101693.75;4967679;28;20224;-75
2022/12/06 06:43:50;;;;;;;13.40;7.83;;;;;;;3.48;100.00;101697.13;4971209;28;20184;-72
2022/12/06 06:46:15;;;;;;;12.83;7.70;;;;;;;3.51;100.00;101695.69;4972984;28;20742;-72
2022/12/06 06:48:41;;;;;;;13.60;8.00;;;;;;;3.53;100.00;101694.09;4977937;28;20196;-74
2022/12/06 06:51:13;;;;;;;11.30;7.33;;;;;;;3.58;100.00;101691.88;4970509;28;20291;-74
2022/12/06 06:53:39;;;;;;;12.93;8.17;;;;;;;3.64;100.00;101702.34;4984397;28;20657;-76
2022/12/06 06:56:05;;;;;;;14.27;7.50;;;;;;;3.65;100.00;101707.50;4988977;28;20243;-75
2022/12/06 06:58:31;;;;;;;13.77;7.70;;;;;;;3.68;100.00;101706.81;4972021;28;20188;-76
2022/12/06 07:00:59;;;;;;;13.10;7.63;;;;;;;3.71;100.00;101705.34;4965910;28;20740;-74
2022/12/06 07:03:26;;;;;;;10.83;7.33;;;;;;;3.74;100.00;101704.66;4969013;28;20640;-73
2022/12/06 07:06:03;;;;;;;14.63;7.47;;;;;;;3.79;100.00;101703.25;4972046;28;20189;-74
2022/12/06 07:08:30;;;;;;;15.87;7.90;;;;;;;3.81;100.00;101709.28;4963398;28;20181;-73
2022/12/06 07:10:56;;;;;;;13.40;8.07;;;;;;;3.83;100.00;101708.63;4969888;28;20713;-73
2022/12/06 07:13:23;;;;;;;11.80;6.97;;;;;;;3.85;100.00;101699.44;4962003;28;20216;-75
2022/12/06 07:15:48;;;;;;;12.27;7.90;;;;;;;3.87;100.00;101710.53;4971589;28;20216;-74
2022/12/06 07:18:15;;;;;;;13.87;8.30;;;;;;;3.88;100.00;101712.31;4972027;28;20211;-74
2022/12/06 07:20:42;;;;;;;14.80;7.40;;;;;;;3.91;100.00;101709.06;4961051;28;20208;-75
2022/12/06 07:23:07;;;;;;;13.80;8.37;;;;;;;3.93;100.00;101712.56;4963292;28;20293;-73
2022/12/06 07:25:33;;;;;;;14.20;7.60;;;;;;;3.96;100.00;101711.06;4977633;28;20275;-73
2022/12/06 07:27:58;;;;;;;13.57;7.73;;;;;;;3.98;100.00;101704.47;4969732;28;20180;-74
2022/12/06 07:30:25;;;;;;;12.10;6.97;;;;;;;3.99;100.00;101716.31;4961676;28;20267;-73
2022/12/06 07:32:51;;;;;;;11.70;7.07;;;;;;;4.02;100.00;101715.63;4964784;28;20780;-74
2022/12/06 07:35:16;;;;;;;12.47;7.73;;;;;;;4.02;100.00;101711.47;4973230;28;20220;-75
2022/12/06 07:37:42;;;;;;;14.90;7.80;;;;;;;4.03;100.00;101710.66;4973079;28;20192;-73
2022/12/06 07:40:09;;;;;;;14.10;8.23;;;;;;;4.07;100.00;101719.31;4968819;28;20268;-73
2022/12/06 07:45:29;;;;;;;11.00;6.83;;;;;;;4.11;100.00;101711.13;4913812;28;20203;-73
2022/12/06 07:47:54;;;;;;;10.63;6.97;;;;;;;4.13;100.00;101714.59;4970031;28;20239;-72
2022/12/06 07:50:21;;;;;;;12.07;7.03;;;;;;;4.13;100.00;101725.63;4970863;28;20282;-75
2022/12/06 07:52:49;;;;;;;10.23;6.70;;;;;;;4.16;100.00;101710.59;4973384;28;20201;-73
2022/12/06 07:55:16;;;;;;;9.37;6.30;;;;;;;4.18;100.00;101709.03;4968995;28;20224;-74
2022/12/06 07:57:43;;;;;;;11.87;6.03;;;;;;;4.23;100.00;101719.44;4962027;28;20708;-78
2022/12/06 08:00:11;;;;;;;8.70;5.87;;;;;;;4.23;100.00;101709.31;4971065;28;20223;-74
2022/12/06 08:02:39;;;;;;;9.40;5.67;;;;;;;4.25;100.00;101710.25;4967537;28;20193;-74
2022/12/06 08:05:05;;;;;;;8.30;5.00;;;;;;;4.26;100.00;101712.88;4976773;28;20661;-72
2022/12/06 08:07:31;;;;;;;8.27;5.23;;;;;;;4.28;100.00;101718.03;4958465;28;20609;-74
2022/12/06 08:09:57;;;;;;;8.13;5.00;;;;;;;4.29;100.00;101719.78;4965532;28;20231;-75
2022/12/06 08:12:22;;;;;;;6.90;4.83;;;;;;;4.30;100.00;101724.94;4970104;28;20536;-73
2022/12/06 08:14:48;;;;;;;6.50;4.37;;;;;;;4.31;100.00;101723.28;4963226;28;20210;-75
2022/12/06 08:17:13;;;;;;;5.90;4.33;;;;;;;4.33;100.00;101724.25;4966297;28;20675;-73
2022/12/06 08:19:38;;;;;;;5.37;4.40;;;;;;;4.36;100.00;101732.91;4963592;28;20189;-73
2022/12/06 08:22:04;;;;;;;5.10;3.67;;;;;;;4.36;100.00;101735.44;4974009;28;20210;-74
2022/12/06 08:24:30;;;;;;;5.40;3.70;;;;;;;4.38;100.00;101733.00;4970635;28;20185;-75
2022/12/06 08:26:55;;;;;;;5.00;3.80;;;;;;;4.40;100.00;101728.88;4970629;28;20196;-73
2022/12/06 08:29:21;;;;;;;5.37;3.40;;;;;;;4.41;100.00;101728.09;4959031;28;20217;-73
2022/12/06 08:31:47;;;;;;;6.47;3.83;;;;;;;4.43;100.00;101734.13;4981536;28;20225;-73
2022/12/06 08:34:14;;;;;;;5.23;3.73;;;;;;;4.45;100.00;101723.28;4964367;28;20751;-73
2022/12/06 08:36:40;;;;;;;5.77;3.93;;;;;;;4.46;100.00;101731.78;4971185;28;20200;-73
2022/12/06 08:39:07;;;;;;;5.37;4.10;;;;;;;4.47;100.00;101725.91;4969471;28;20200;-73
2022/12/06 08:44:17;;;;;;;6.03;4.07;;;;;;;4.51;100.00;101727.84;4964814;28;20192;-76
2022/12/06 08:46:43;;;;;;;7.50;4.67;;;;;;;4.51;100.00;101730.38;4963848;28;20193;-76
2022/12/06 08:49:10;;;;;;;6.63;4.13;;;;;;;4.55;100.00;101732.31;4981762;28;20200;-73
2022/12/06 08:51:35;;;;;;;8.70;4.90;;;;;;;4.53;100.00;101727.16;4967251;28;20211;-75
2022/12/06 08:54:02;;;;;;;5.97;4.57;;;;;;;4.55;100.00;101729.78;4962122;28;20262;-73
2022/12/06 08:56:27;;;;;;;7.93;5.27;;;;;;;4.57;100.00;101725.66;4960918;28;20626;-76
2022/12/06 08:58:54;;;;;;;7.17;4.60;;;;;;;4.55;100.00;101727.25;4973175;28;20181;-73
2022/12/06 09:01:24;;;;;;;9.63;4.83;;;;;;;4.57;100.00;101729.09;4967108;28;20212;-74
2022/12/06 09:03:49;;;;;;;8.77;4.83;;;;;;;4.58;100.00;101728.28;4964844;28;20196;-73
2022/12/06 09:06:16;;;;;;;7.93;4.93;;;;;;;4.59;100.00;101731.69;4967281;28;20192;-73
2022/12/06 09:08:41;;;;;;;6.37;4.47;;;;;;;4.61;100.00;101730.13;4965925;28;20593;-74
2022/12/06 09:11:07;;;;;;;7.23;5.37;;;;;;;4.60;100.00;101743.59;4964817;28;20212;-73
2022/12/06 09:13:34;;;;;;;6.30;5.00;;;;;;;4.60;100.00;101739.38;4979436;28;20185;-74
2022/12/06 09:16:04;;;;;;;7.27;4.90;;;;;;;4.62;100.00;101742.91;4967424;28;20219;-73
2022/12/06 09:18:29;;;;;;;5.90;4.43;;;;;;;4.63;100.00;101744.63;4960052;28;20197;-73
2022/12/06 09:20:55;;;;;;;8.53;5.23;;;;;;;4.63;100.00;101747.16;4967282;28;20215;-74
2022/12/06 09:23:20;;;;;;;6.97;5.07;;;;;;;4.63;100.00;101736.13;4965789;28;20197;-74
2022/12/06 09:25:46;;;;;;;7.70;5.80;;;;;;;4.65;100.00;101747.25;4965830;28;20196;-73
2022/12/06 09:28:12;;;;;;;8.60;5.40;;;;;;;4.63;100.00;101737.03;4967665;28;20211;-76
2022/12/06 09:30:37;;;;;;;7.93;5.17;;;;;;;4.65;100.00;101745.59;4967801;28;20303;-74
2022/12/06 09:33:03;;;;;;;8.87;5.93;;;;;;;4.65;100.00;101747.25;4979811;28;20240;-73
2022/12/06 09:35:29;;;;;;;7.60;5.67;;;;;;;4.64;100.00;101742.94;4964315;28;20220;-75
2022/12/06 09:37:55;;;;;;;8.17;5.97;;;;;;;4.66;100.00;101743.94;4978993;28;20600;-74
2022/12/06 09:40:34;;;;;;;8.50;6.03;;;;;;;4.67;100.00;101746.56;4966913;28;20216;-74
2022/12/06 09:43:15;;;;;;;8.43;6.17;;;;;;;4.66;100.00;101743.94;4974753;28;20216;-74
2022/12/06 09:46:12;;;;;;;10.10;7.00;;;;;;;4.66;100.00;101734.69;4966519;28;20177;-76
2022/12/06 09:48:56;;;;;;;9.87;6.30;;;;;;;4.66;100.00;101732.13;4910877;28;20209;-73
2022/12/06 09:51:38;;;;;;;8.83;7.20;;;;;;;4.65;100.00;101740.50;4961575;28;20220;-73
2022/12/06 09:54:10;;;;;;;9.60;6.80;;;;;;;4.61;100.00;101738.59;4969847;28;20215;-74
2022/12/06 09:56:57;;;;;;;9.70;6.87;;;;;;;4.64;100.00;101738.78;4960202;28;20197;-75
2022/12/06 09:59:36;;;;;;;10.23;7.47;;;;;;;4.65;100.00;101737.97;4964789;28;20239;-73
2022/12/06 10:02:39;;;;;;;10.57;6.93;;;;;;;4.66;100.00;101746.47;4972692;28;20181;-74
2022/12/06 10:05:17;;;;;;;10.03;7.27;;;;;;;4.64;100.00;101738.78;4962070;28;20278;-72
2022/12/06 10:07:55;;;;;;;10.47;7.47;;;;;;;4.59;100.00;101737.63;4984813;28;20197;-73
2022/12/06 10:10:32;;;;;;;10.97;7.47;;;;;;;4.60;100.00;101744.44;4966296;28;20216;-74
2022/12/06 10:13:12;;;;;;;10.73;7.40;;;;;;;4.60;100.00;101741.91;4968590;28;20188;-73
2022/12/06 10:15:50;;;;;;;10.27;6.67;;;;;;;4.68;100.00;101737.28;4966363;28;20844;-75
2022/12/06 10:18:56;;;;;;;9.47;7.50;;;;;;;4.66;100.00;101736.31;4968871;28;20560;-73
2022/12/06 10:21:22;;;;;;;10.73;7.20;;;;;;;4.66;100.00;101733.78;4972409;28;20243;-73
2022/12/06 10:24:11;;;;;;;12.67;7.27;;;;;;;4.65;100.00;101737.13;4973010;28;20812;-74
2022/12/06 10:26:51;;;;;;;9.83;6.93;;;;;;;4.64;100.00;101733.69;4966845;28;20247;-73
2022/12/06 10:29:36;;;;;;;8.90;6.47;;;;;;;4.66;100.00;101731.25;4970824;28;20199;-76
2022/12/06 10:32:32;;;;;;;8.80;6.20;;;;;;;4.69;100.00;101733.97;4970060;28;20196;-72
2022/12/06 10:35:21;;;;;;;9.77;6.03;;;;;;;4.68;100.00;101727.13;4957161;28;20295;-72
2022/12/06 10:38:05;;;;;;;10.23;6.73;;;;;;;4.66;100.00;101727.06;4951725;28;20212;-72
2022/12/06 10:40:37;;;;;;;9.87;7.13;;;;;;;4.66;100.00;101731.25;4973216;28;20212;-75
2022/12/06 10:43:15;;;;;;;11.07;6.83;;;;;;;4.68;100.00;101729.66;4985197;28;20193;-73
2022/12/06 10:48:40;;;;;;;9.67;6.40;;;;;;;4.68;100.00;101730.56;4967756;28;20205;-74
2022/12/06 10:51:15;;;;;;;11.50;6.70;;;;;;;4.68;100.00;101728.00;4973477;28;20209;-74
2022/12/06 10:53:50;;;;;;;10.13;6.60;;;;;;;4.71;100.00;101734.91;4969699;28;20681;-75
2022/12/06 10:56:21;;;;;;;8.83;6.60;;;;;;;4.72;100.00;101727.41;4966908;28;20208;-74
2022/12/06 10:59:13;;;;;;;8.50;6.10;;;;;;;4.72;100.00;101723.97;4963686;28;20254;-74
2022/12/06 11:01:42;;;;;;;10.20;6.90;;;;;;;4.76;100.00;101730.97;4960542;28;20224;-74
2022/12/06 11:04:17;;;;;;;12.67;8.07;;;;;;;4.78;100.00;101729.41;4959668;28;20194;-75
2022/12/06 11:06:48;;;;;;;10.10;6.97;;;;;;;4.72;100.00;101722.34;4967163;28;20202;-73
2022/12/06 11:09:16;;;;;;;12.17;8.10;;;;;;;4.73;100.00;101728.25;4958087;28;20188;-73
2022/12/06 11:11:43;;;;;;;9.93;7.27;;;;;;;4.70;100.00;101721.34;4958228;28;20308;-74
2022/12/06 11:14:08;;;;;;;10.40;7.30;;;;;;;4.74;100.00;101720.75;4988439;28;20204;-73
2022/12/06 11:16:39;;;;;;;11.83;7.43;;;;;;;4.76;100.00;101719.19;4971935;28;20255;-73
2022/12/06 11:19:42;;;;;;;10.60;7.27;;;;;;;4.79;100.00;101721.03;4967292;28;20210;-75
2022/12/06 11:22:30;;;;;;;11.27;8.50;;;;;;;4.77;100.00;101720.03;4967561;28;20200;-73
2022/12/06 11:25:27;;;;;;;15.27;9.77;;;;;;;4.71;100.00;101725.66;4963857;28;20169;-73
2022/12/06 11:28:04;;;;;;;15.80;10.17;;;;;;;4.71;100.00;101722.25;4963830;28;20200;-72
2022/12/06 11:30:31;;;;;;;14.47;9.67;;;;;;;4.71;100.00;101725.66;4962351;28;20640;-73
2022/12/06 11:33:00;;;;;;;15.53;9.60;;;;;;;4.71;100.00;101720.59;4968071;28;20185;-75
2022/12/06 11:35:27;;;;;;;14.97;10.20;;;;;;;4.72;100.00;101717.25;4965936;28;20236;-75
2022/12/06 11:38:06;;;;;;;16.30;10.03;;;;;;;4.72;100.00;101711.31;4967354;28;20259;-75
2022/12/06 11:40:35;;;;;;;12.97;9.27;;;;;;;4.71;100.00;101710.44;4963114;28;20351;-75
2022/12/06 11:43:05;;;;;;;14.10;9.17;;;;;;;4.68;100.00;101709.38;4965596;28;20197;-73
2022/12/06 11:45:38;;;;;;;15.57;9.63;;;;;;;4.61;100.00;101705.63;4962635;28;20204;-74
2022/12/06 11:48:17;;;;;;;15.30;9.70;;;;;;;4.61;100.00;101697.16;4982047;28;20208;-75
2022/12/06 11:50:44;;;;;;;16.33;9.90;;;;;;;4.62;100.00;101698.91;4986077;28;20616;-74
2022/12/06 11:53:24;;;;;;;17.03;10.13;;;;;;;4.65;100.00;101704.16;4964768;28;20578;-74